createdAt,value
2017-11-09T00:01:34.844Z,101678.74
2017-11-09T00:04:08.848Z,101681.76
2017-11-09T00:06:37.375Z,101686.45
2017-11-09T00:09:05.723Z,101692.00
2017-11-09T00:11:34.472Z,101687.31
2017-11-09T00:14:03.168Z,101689.42
2017-11-09T00:16:34.880Z,101685.61
2017-11-09T00:19:03.534Z,101686.45
2017-11-09T00:21:32.233Z,101685.61
2017-11-09T00:24:00.892Z,101683.05
2017-11-09T00:26:29.788Z,101679.22
2017-11-09T00:28:58.444Z,101670.71
2017-11-09T00:31:27.183Z,101671.14
2017-11-09T00:33:55.880Z,101679.66
2017-11-09T00:36:24.552Z,101677.98
2017-11-09T00:38:53.222Z,101678.40
2017-11-09T00:41:22.887Z,101682.64
2017-11-09T00:43:51.604Z,101677.98
2017-11-09T00:46:20.316Z,101681.39
2017-11-09T00:48:48.986Z,101682.66
2017-11-09T00:51:17.627Z,101689.05
2017-11-09T00:53:46.332Z,101692.88
2017-11-09T00:56:15.010Z,101695.88
2017-11-09T00:58:43.711Z,101700.56
2017-11-09T01:01:16.126Z,101701.87
2017-11-09T01:03:45.045Z,101694.61
2017-11-09T01:06:13.695Z,101686.98
2017-11-09T01:08:42.386Z,101688.68
2017-11-09T01:11:11.117Z,101689.54
2017-11-09T01:13:39.798Z,101692.50
2017-11-09T01:16:08.490Z,101696.77
2017-11-09T01:18:37.648Z,101689.12
2017-11-09T01:21:06.294Z,101692.52
2017-11-09T01:23:35.026Z,101692.09
2017-11-09T01:26:03.674Z,101692.53
2017-11-09T01:28:32.327Z,101695.51
2017-11-09T01:31:01.028Z,101695.92
2017-11-09T01:33:29.689Z,101692.55
2017-11-09T01:35:58.973Z,101690.44
2017-11-09T01:38:27.624Z,101695.56
2017-11-09T01:40:56.279Z,101687.47
2017-11-09T01:43:25.024Z,101689.17
2017-11-09T01:45:53.721Z,101689.59
2017-11-09T01:48:22.444Z,101689.17
2017-11-09T01:50:51.378Z,101687.45
2017-11-09T01:53:20.089Z,101686.19
2017-11-09T01:55:48.859Z,101685.77
2017-11-09T01:58:17.603Z,101681.52
2017-11-09T02:00:46.304Z,101687.89
2017-11-09T02:03:14.999Z,101684.91
2017-11-09T02:05:44.400Z,101686.63
2017-11-09T02:08:13.055Z,101691.74
2017-11-09T02:10:41.772Z,101693.46
2017-11-09T02:13:10.439Z,101696.45
2017-11-09T02:15:39.150Z,101698.16
2017-11-09T02:18:07.860Z,101693.48
2017-11-09T02:20:36.231Z,101699.00
2017-11-09T02:23:05.142Z,101697.73
2017-11-09T02:25:33.516Z,101693.04
2017-11-09T02:28:02.229Z,101688.77
2017-11-09T02:30:30.640Z,101685.80
2017-11-09T02:32:59.162Z,101693.90
2017-11-09T02:35:27.872Z,101699.43
2017-11-09T02:37:56.250Z,101697.73
2017-11-09T02:40:24.929Z,101692.62
2017-11-09T02:42:53.701Z,101690.06
2017-11-09T02:45:22.364Z,101692.64
2017-11-09T02:47:51.080Z,101685.39
2017-11-09T02:50:19.778Z,101685.83
2017-11-09T02:52:48.439Z,101689.23
2017-11-09T02:55:16.876Z,101684.53
2017-11-09T02:57:45.564Z,101687.09
2017-11-09T03:00:13.970Z,101688.82
2017-11-09T03:02:42.628Z,101690.52
2017-11-09T03:05:11.285Z,101687.09
2017-11-09T03:07:40.073Z,101680.27
2017-11-09T03:10:08.775Z,101677.31
2017-11-09T03:12:37.453Z,101670.92
2017-11-09T03:15:06.163Z,101670.91
2017-11-09T03:17:34.840Z,101665.38
2017-11-09T03:20:03.550Z,101663.67
2017-11-09T03:22:32.226Z,101659.42
2017-11-09T03:25:00.938Z,101658.56
2017-11-09T03:27:29.633Z,101654.29
2017-11-09T03:29:58.322Z,101662.40
2017-11-09T03:32:27.299Z,101664.09
2017-11-09T03:34:55.964Z,101656.84
2017-11-09T03:37:24.633Z,101653.03
2017-11-09T03:39:53.349Z,101647.05
2017-11-09T03:42:22.011Z,101643.64
2017-11-09T03:44:50.719Z,101644.48
2017-11-09T03:47:19.483Z,101643.20
2017-11-09T03:49:48.145Z,101631.72
2017-11-09T03:52:16.860Z,101628.31
2017-11-09T03:54:45.540Z,101621.50
2017-11-09T03:57:14.202Z,101620.64
2017-11-09T03:59:42.904Z,101620.23
2017-11-09T04:02:11.540Z,101624.05
2017-11-09T04:04:40.187Z,101624.05
2017-11-09T04:07:10.314Z,101624.45
2017-11-09T04:09:38.952Z,101628.73
2017-11-09T04:12:07.696Z,101627.88
2017-11-09T04:14:36.355Z,101625.33
2017-11-09T04:17:08.043Z,101628.75
2017-11-09T04:19:36.735Z,101627.02
2017-11-09T04:22:05.429Z,101622.77
2017-11-09T04:24:34.139Z,101624.48
2017-11-09T04:27:09.235Z,101628.31
2017-11-09T04:29:37.896Z,101627.45
2017-11-09T04:32:06.622Z,101623.63
2017-11-09T04:34:35.264Z,101619.80
2017-11-09T04:37:03.936Z,101621.08
2017-11-09T04:39:32.729Z,101621.09
2017-11-09T04:42:01.840Z,101620.66
2017-11-09T04:50:05.717Z,101615.16
2017-11-09T04:52:39.231Z,101614.73
2017-11-09T04:55:11.632Z,101608.77
2017-11-09T04:57:45.733Z,101612.61
2017-11-09T05:00:18.741Z,101612.63
2017-11-09T05:02:47.475Z,101609.20
2017-11-09T05:05:16.128Z,101612.61
2017-11-09T05:07:44.772Z,101615.58
2017-11-09T05:10:13.466Z,101618.14
2017-11-09T05:12:42.274Z,101612.19
2017-11-09T05:15:10.942Z,101612.19
2017-11-09T05:17:39.594Z,101604.52
2017-11-09T05:20:08.875Z,101602.40
2017-11-09T05:22:37.545Z,101606.23
2017-11-09T05:25:06.243Z,101616.45
2017-11-09T05:27:34.929Z,101620.27
2017-11-09T05:30:04.538Z,101623.70
2017-11-09T05:32:33.457Z,101619.45
2017-11-09T05:35:04.040Z,101617.75
2017-11-09T05:37:32.734Z,101620.75
2017-11-09T05:40:01.395Z,101614.80
2017-11-09T05:42:30.132Z,101621.61
2017-11-09T05:44:58.855Z,101634.37
2017-11-09T05:47:27.577Z,101633.95
2017-11-09T05:49:56.295Z,101628.42
2017-11-09T05:52:24.991Z,101636.09
2017-11-09T05:54:53.641Z,101635.67
2017-11-09T05:57:22.309Z,101630.97
2017-11-09T05:59:51.044Z,101631.39
2017-11-09T06:02:25.955Z,101628.00
2017-11-09T06:04:56.133Z,101630.97
2017-11-09T06:07:24.912Z,101634.37
2017-11-09T06:09:53.581Z,101627.56
2017-11-09T06:12:22.288Z,101629.70
2017-11-09T06:14:51.021Z,101626.72
2017-11-09T06:17:19.711Z,101630.99
2017-11-09T06:19:48.404Z,101624.18
2017-11-09T06:22:17.068Z,101623.77
2017-11-09T06:24:45.771Z,101625.45
2017-11-09T06:27:14.435Z,101624.60
2017-11-09T06:29:43.127Z,101620.34
2017-11-09T06:32:11.776Z,101615.29
2017-11-09T06:34:40.471Z,101603.33
2017-11-09T06:37:09.136Z,101607.58
2017-11-09T06:39:37.827Z,101607.14
2017-11-09T06:42:06.487Z,101609.70
2017-11-09T06:44:35.195Z,101599.48
2017-11-09T06:47:07.088Z,101599.48
2017-11-09T06:49:35.808Z,101596.50
2017-11-09T06:52:04.465Z,101601.65
2017-11-09T06:54:33.119Z,101597.81
2017-11-09T06:57:04.388Z,101597.42
2017-11-09T06:59:33.163Z,101602.95
2017-11-09T07:02:01.867Z,101605.89
2017-11-09T07:04:30.570Z,101596.12
2017-11-09T07:06:59.220Z,101599.53
2017-11-09T07:09:28.158Z,101598.27
2017-11-09T07:11:56.840Z,101595.70
2017-11-09T07:14:25.499Z,101602.95
2017-11-09T07:16:54.212Z,101605.94
2017-11-09T07:19:22.906Z,101614.01
2017-11-09T07:21:51.567Z,101613.17
2017-11-09T07:24:20.364Z,101606.80
2017-11-09T07:26:49.051Z,101610.61
2017-11-09T07:29:17.712Z,101605.52
2017-11-09T07:31:46.148Z,101607.64
2017-11-09T07:34:14.826Z,101600.41
2017-11-09T07:36:43.531Z,101605.06
2017-11-09T07:39:12.238Z,101609.31
2017-11-09T07:41:40.891Z,101604.62
2017-11-09T07:44:09.587Z,101604.59
2017-11-09T07:46:38.258Z,101613.54
2017-11-09T07:49:06.951Z,101612.66
2017-11-09T07:51:35.814Z,101607.13
2017-11-09T07:54:04.519Z,101610.94
2017-11-09T07:56:33.186Z,101609.66
2017-11-09T07:59:01.702Z,101607.53
2017-11-09T08:01:30.400Z,101613.06
2017-11-09T08:03:59.055Z,101606.66
2017-11-09T08:06:27.753Z,101604.95
2017-11-09T08:08:56.460Z,101603.64
2017-11-09T08:11:25.116Z,101609.16
2017-11-09T08:13:53.832Z,101602.78
2017-11-09T08:16:22.527Z,101601.05
2017-11-09T08:18:51.170Z,101599.77
2017-11-09T08:21:19.869Z,101598.89
2017-11-09T08:23:48.520Z,101600.61
2017-11-09T08:26:17.993Z,101605.73
2017-11-09T08:28:51.034Z,101618.46
2017-11-09T08:31:32.749Z,101610.77
2017-11-09T08:34:11.594Z,101600.11
2017-11-09T08:36:40.755Z,101594.11
2017-11-09T08:39:09.461Z,101591.96
2017-11-09T08:41:38.355Z,101583.41
2017-11-09T08:44:07.013Z,101575.30
2017-11-09T08:46:35.919Z,101584.23
2017-11-09T08:49:04.618Z,101579.10
2017-11-09T08:51:33.375Z,101580.76
2017-11-09T08:54:02.059Z,101579.06
2017-11-09T08:56:30.705Z,101579.48
2017-11-09T08:58:59.531Z,101572.66
2017-11-09T09:01:28.177Z,101579.45
2017-11-09T09:03:56.877Z,101573.01
2017-11-09T09:06:25.524Z,101561.46
2017-11-09T09:08:54.163Z,101564.86
2017-11-09T09:11:22.719Z,101558.41
2017-11-09T09:13:51.249Z,101564.78
2017-11-09T09:16:19.827Z,101557.92
2017-11-09T09:18:48.331Z,101564.69
2017-11-09T09:21:27.729Z,101563.75
2017-11-09T09:27:09.433Z,101567.88
2017-11-09T09:29:39.351Z,101566.10
2017-11-09T09:32:07.864Z,101571.59
2017-11-09T09:37:56.541Z,101576.96
2017-11-09T09:40:28.541Z,101573.48
2017-11-09T09:42:57.104Z,101575.09
2017-11-09T09:45:25.681Z,101565.70
2017-11-09T09:47:54.239Z,101561.79
2017-11-09T09:50:22.776Z,101563.42
2017-11-09T09:52:51.490Z,101568.94
2017-11-09T09:55:20.009Z,101565.40
2017-11-09T09:57:48.578Z,101564.09
2017-11-09T10:00:17.171Z,101562.77
2017-11-09T10:02:45.823Z,101558.08
2017-11-09T10:05:14.493Z,101563.13
2017-11-09T10:07:43.247Z,101562.20
2017-11-09T10:10:11.756Z,101557.05
2017-11-09T10:12:40.527Z,101556.59
2017-11-09T10:15:09.190Z,101551.84
2017-11-09T10:17:37.836Z,101539.47
2017-11-09T10:20:06.535Z,101529.63
2017-11-09T10:22:35.526Z,101518.06
2017-11-09T10:25:04.184Z,101521.46
2017-11-09T10:27:32.900Z,101519.28
2017-11-09T10:30:01.550Z,101513.69
2017-11-09T10:32:31.078Z,101511.09
2017-11-09T10:34:59.784Z,101512.80
2017-11-09T10:37:28.427Z,101507.23
2017-11-09T10:39:57.128Z,101505.89
2017-11-09T10:42:25.796Z,101498.63
2017-11-09T10:44:54.446Z,101497.70
2017-11-09T10:47:23.132Z,101498.93
2017-11-09T10:49:51.471Z,101505.70
2017-11-09T10:52:20.215Z,101508.64
2017-11-09T10:54:48.865Z,101502.22
2017-11-09T10:57:17.551Z,101499.59
2017-11-09T10:59:46.271Z,101495.27
2017-11-09T11:02:17.766Z,101490.06
2017-11-09T11:04:46.494Z,101487.46
2017-11-09T11:07:15.177Z,101489.14
2017-11-09T11:09:43.906Z,101491.22
2017-11-09T11:12:12.554Z,101497.58
2017-11-09T11:14:41.249Z,101503.51
2017-11-09T11:17:09.919Z,101501.77
2017-11-09T11:19:38.638Z,101492.77
2017-11-09T11:22:07.300Z,101495.27
2017-11-09T11:24:35.965Z,101497.39
2017-11-09T11:27:08.752Z,101502.95
2017-11-09T11:29:37.423Z,101509.71
2017-11-09T11:32:06.192Z,101504.52
2017-11-09T11:34:34.845Z,101507.42
2017-11-09T11:37:06.750Z,101495.58
2017-11-09T11:39:35.468Z,101498.88
2017-11-09T11:42:04.115Z,101499.30
2017-11-09T11:44:32.829Z,101495.83
2017-11-09T11:47:06.217Z,101494.91
2017-11-09T11:49:34.921Z,101490.19
2017-11-09T11:52:03.575Z,101488.42
2017-11-09T11:54:32.228Z,101485.44
2017-11-09T11:57:04.752Z,101493.87
2017-11-09T11:59:33.956Z,101490.02
2017-11-09T12:02:02.674Z,101484.36
2017-11-09T12:04:31.339Z,101479.23
2017-11-09T12:06:59.990Z,101471.97
2017-11-09T12:09:28.686Z,101475.32
2017-11-09T12:12:00.305Z,101471.03
2017-11-09T12:14:29.020Z,101466.25
2017-11-09T12:16:57.678Z,101470.00
2017-11-09T12:19:26.512Z,101477.22
2017-11-09T12:21:55.216Z,101468.64
2017-11-09T12:24:23.880Z,101474.14
2017-11-09T12:26:52.577Z,101471.09
2017-11-09T12:29:21.225Z,101473.20
2017-11-09T12:31:49.399Z,101471.88
2017-11-09T12:34:18.109Z,101464.50
2017-11-09T12:36:46.805Z,101469.58
2017-11-09T12:39:15.521Z,101455.88
2017-11-09T12:41:44.187Z,101453.23
2017-11-09T12:44:12.840Z,101446.83
2017-11-09T12:46:41.575Z,101434.01
2017-11-09T12:49:10.275Z,101426.30
2017-11-09T12:51:38.943Z,101421.19
2017-11-09T12:54:07.683Z,101419.41
2017-11-09T12:56:36.381Z,101425.88
2017-11-09T12:59:05.085Z,101416.41
2017-11-09T13:01:33.746Z,101406.55
2017-11-09T13:04:02.428Z,101408.63
2017-11-09T13:06:30.990Z,101402.17
2017-11-09T13:08:59.701Z,101407.30
2017-11-09T13:11:28.377Z,101405.97
2017-11-09T13:13:57.082Z,101403.33
2017-11-09T13:16:25.599Z,101403.83
2017-11-09T13:18:54.151Z,101401.59
2017-11-09T13:21:22.734Z,101400.29
2017-11-09T13:23:51.464Z,101398.98
2017-11-09T13:26:20.135Z,101398.53
2017-11-09T13:28:48.815Z,101398.53
2017-11-09T13:31:17.392Z,101401.07
2017-11-09T13:33:46.911Z,101399.81
2017-11-09T13:36:15.672Z,101403.58
2017-11-09T13:38:44.458Z,101406.17
2017-11-09T13:41:13.100Z,101407.01
2017-11-09T13:43:41.796Z,101415.09
2017-11-09T13:46:10.493Z,101414.23
2017-11-09T13:48:39.209Z,101415.07
2017-11-09T13:51:07.860Z,101413.37
2017-11-09T13:53:36.521Z,101419.75
2017-11-09T13:56:05.213Z,101415.95
2017-11-09T13:58:33.881Z,101409.13
2017-11-09T14:01:02.595Z,101399.70
2017-11-09T14:03:31.267Z,101392.44
2017-11-09T14:05:59.920Z,101392.44
2017-11-09T14:08:46.399Z,101400.57
2017-11-09T14:11:28.159Z,101401.07
2017-11-09T14:14:11.365Z,101401.09
2017-11-09T14:16:51.356Z,101397.67
2017-11-09T14:19:36.835Z,101395.55
2017-11-09T14:25:10.450Z,101393.91
2017-11-09T14:27:53.685Z,101382.87
2017-11-09T14:30:40.785Z,101380.75
2017-11-09T14:33:25.884Z,101379.97
2017-11-09T14:36:09.733Z,101373.55
2017-11-09T14:39:02.454Z,101363.35
2017-11-09T14:41:40.826Z,101358.67
2017-11-09T14:44:24.101Z,101348.45
2017-11-09T14:46:55.928Z,101348.50
2017-11-09T14:49:39.464Z,101340.00
2017-11-09T14:52:19.227Z,101338.80
2017-11-09T14:55:00.350Z,101340.58
2017-11-09T14:57:38.677Z,101334.64
2017-11-09T15:00:20.196Z,101335.95
2017-11-09T15:03:00.149Z,101336.42
2017-11-09T15:05:47.145Z,101334.02
2017-11-09T15:11:14.923Z,101319.59
2017-11-09T15:13:59.179Z,101323.42
2017-11-09T15:16:43.590Z,101316.27
2017-11-09T15:19:23.612Z,101313.73
2017-11-09T15:22:07.140Z,101320.66
2017-11-09T15:24:56.930Z,101308.77
2017-11-09T15:27:43.317Z,101307.12
2017-11-09T15:30:28.933Z,101308.51
2017-11-09T15:33:16.145Z,101319.70
2017-11-09T15:36:15.402Z,101323.56
2017-11-09T15:39:00.053Z,101318.99
2017-11-09T15:41:44.144Z,101314.38
2017-11-09T15:44:29.061Z,101306.31
2017-11-09T15:50:07.535Z,101298.36
2017-11-09T15:52:47.692Z,101292.90
2017-11-09T15:58:18.105Z,101307.56
2017-11-09T16:01:02.476Z,101297.00
2017-11-09T16:03:45.770Z,101303.03
2017-11-09T16:09:14.254Z,101299.71
2017-11-09T16:11:56.860Z,101303.20
2017-11-09T16:14:39.229Z,101301.53
2017-11-09T16:17:21.545Z,101294.82
2017-11-09T16:20:06.715Z,101300.42
2017-11-09T16:22:48.437Z,101295.33
2017-11-09T16:25:30.324Z,101293.69
2017-11-09T16:28:08.672Z,101294.58
2017-11-09T16:31:00.801Z,101294.20
2017-11-09T16:33:43.669Z,101295.98
2017-11-09T16:36:19.309Z,101305.41
2017-11-09T16:39:00.455Z,101311.83
2017-11-09T16:41:45.581Z,101317.39
2017-11-09T16:44:29.630Z,101316.53
2017-11-09T16:47:19.369Z,101306.29
2017-11-09T16:49:58.331Z,101298.22
2017-11-09T16:52:35.892Z,101293.59
2017-11-09T16:55:18.492Z,101294.45
2017-11-09T16:58:02.186Z,101299.97
2017-11-09T17:00:41.029Z,101304.69
2017-11-09T17:03:24.257Z,101295.36
2017-11-09T17:06:04.119Z,101287.69
2017-11-09T17:08:47.062Z,101298.29
2017-11-09T17:11:31.628Z,101300.43
2017-11-09T17:14:18.472Z,101305.55
2017-11-09T17:17:03.999Z,101306.00
2017-11-09T17:19:45.812Z,101317.56
2017-11-09T17:25:18.307Z,101314.63
2017-11-09T17:28:03.364Z,101310.80
2017-11-09T17:30:48.623Z,101296.25
2017-11-09T17:33:33.722Z,101294.06
2017-11-09T17:36:19.219Z,101298.37
2017-11-09T17:39:06.169Z,101283.16
2017-11-09T17:41:49.805Z,101283.58
2017-11-09T17:44:36.803Z,101290.39
2017-11-09T17:47:23.784Z,101285.67
2017-11-09T17:50:04.234Z,101286.11
2017-11-09T17:52:48.744Z,101278.85
2017-11-09T17:55:28.877Z,101278.85
2017-11-09T17:58:11.127Z,101273.69
2017-11-09T18:00:53.018Z,101281.86
2017-11-09T18:03:37.341Z,101281.41
2017-11-09T18:06:22.034Z,101274.57
2017-11-09T18:09:10.135Z,101282.22
2017-11-09T18:11:52.694Z,101277.59
2017-11-09T18:14:38.866Z,101276.30
2017-11-09T18:17:22.982Z,101271.20
2017-11-09T18:20:06.082Z,101266.08
2017-11-09T18:22:56.263Z,101257.95
2017-11-09T18:25:39.856Z,101260.14
2017-11-09T18:28:21.931Z,101264.83
2017-11-09T18:31:08.375Z,101258.42
2017-11-09T18:33:53.989Z,101254.59
2017-11-09T18:36:40.193Z,101245.16
2017-11-09T18:39:28.651Z,101242.23
2017-11-09T18:42:17.762Z,101244.86
2017-11-09T18:45:02.731Z,101237.60
2017-11-09T18:47:51.030Z,101231.20
2017-11-09T18:50:37.409Z,101230.81
2017-11-09T18:53:23.783Z,101231.65
2017-11-09T18:56:08.911Z,101227.89
2017-11-09T18:58:54.546Z,101229.58
2017-11-09T19:01:38.715Z,101226.61
2017-11-09T19:04:22.942Z,101226.61
2017-11-09T19:07:07.043Z,101225.30
2017-11-09T19:09:52.761Z,101222.30
2017-11-09T19:12:38.700Z,101222.40
2017-11-09T19:15:18.881Z,101221.09
2017-11-09T19:18:03.493Z,101225.35
2017-11-09T19:20:46.330Z,101229.61
2017-11-09T19:23:29.621Z,101232.59
2017-11-09T19:26:12.985Z,101228.75
2017-11-09T19:28:55.515Z,101224.52
2017-11-09T19:31:38.678Z,101229.22
2017-11-09T19:34:20.076Z,101229.61
2017-11-09T19:37:06.653Z,101221.52
2017-11-09T19:39:54.302Z,101222.82
2017-11-09T19:42:38.270Z,101221.98
2017-11-09T19:45:26.982Z,101227.52
2017-11-09T19:48:11.673Z,101230.47
2017-11-09T19:50:53.490Z,101231.36
2017-11-09T19:53:37.689Z,101232.19
2017-11-09T19:56:24.498Z,101232.22
2017-11-09T19:59:07.020Z,101233.08
2017-11-09T20:01:52.629Z,101228.33
2017-11-09T20:07:20.645Z,101220.65
2017-11-09T20:10:06.851Z,101224.91
2017-11-09T20:12:50.999Z,101229.14
2017-11-09T20:15:35.393Z,101216.45
2017-11-09T20:18:21.477Z,101217.70
2017-11-09T20:21:07.605Z,101217.74
2017-11-09T20:23:56.352Z,101214.74
2017-11-09T20:26:41.310Z,101215.59
2017-11-09T20:29:26.029Z,101218.06
2017-11-09T20:32:09.896Z,101213.42
2017-11-09T20:34:53.410Z,101220.23
2017-11-09T20:37:34.401Z,101212.55
2017-11-09T20:40:13.749Z,101214.67
2017-11-09T20:42:56.496Z,101205.66
2017-11-09T20:45:40.330Z,101195.87
2017-11-09T20:48:23.179Z,101203.99
2017-11-09T20:51:04.805Z,101203.97
2017-11-09T20:56:34.277Z,101198.43
2017-11-09T20:59:14.878Z,101200.10
2017-11-09T21:01:44.552Z,101200.13
2017-11-09T21:04:14.933Z,101204.38
2017-11-09T21:06:43.735Z,101206.92
2017-11-09T21:09:12.399Z,101204.30
2017-11-09T21:11:41.104Z,101196.63
2017-11-09T21:14:09.812Z,101201.36
2017-11-09T21:16:41.359Z,101200.91
2017-11-09T21:19:22.207Z,101191.92
2017-11-09T21:22:07.076Z,101191.91
2017-11-09T21:24:43.468Z,101186.34
2017-11-09T21:27:18.902Z,101183.81
2017-11-09T21:29:49.886Z,101179.94
2017-11-09T21:32:20.616Z,101175.66
2017-11-09T21:34:53.791Z,101182.89
2017-11-09T21:37:26.097Z,101178.22
2017-11-09T21:39:57.781Z,101179.48
2017-11-09T21:42:28.983Z,101183.29
2017-11-09T21:44:59.948Z,101183.70
2017-11-09T21:47:30.979Z,101179.79
2017-11-09T21:50:02.705Z,101175.58
2017-11-09T21:52:32.757Z,101178.06
2017-11-09T21:55:03.237Z,101177.23
2017-11-09T21:57:33.483Z,101172.53
2017-11-09T22:00:08.800Z,101177.16
2017-11-09T22:02:37.502Z,101175.48
2017-11-09T22:05:06.210Z,101185.22
2017-11-09T22:07:34.872Z,101180.91
2017-11-09T22:10:03.594Z,101184.30
2017-11-09T22:12:32.275Z,101177.02
2017-11-09T22:15:01.094Z,101177.46
2017-11-09T22:17:30.295Z,101167.64
2017-11-09T22:19:58.935Z,101167.64
2017-11-09T22:22:27.626Z,101171.88
2017-11-09T22:24:56.528Z,101169.75
2017-11-09T22:27:25.219Z,101168.87
2017-11-09T22:29:54.014Z,101170.52
2017-11-09T22:32:22.672Z,101163.72
2017-11-09T22:34:51.877Z,101164.95
2017-11-09T22:37:20.603Z,101162.84
2017-11-09T22:39:49.242Z,101168.31
2017-11-09T22:42:17.930Z,101175.58
2017-11-09T22:44:46.631Z,101165.73
2017-11-09T22:47:15.282Z,101170.83
2017-11-09T22:49:46.049Z,101161.86
2017-11-09T22:52:16.773Z,101158.00
2017-11-09T22:54:45.527Z,101161.39
2017-11-09T22:57:14.471Z,101160.50
2017-11-09T22:59:43.188Z,101148.95
2017-11-09T23:02:11.827Z,101148.52
2017-11-09T23:04:40.524Z,101139.97
2017-11-09T23:07:10.759Z,101138.69
2017-11-09T23:09:39.336Z,101130.98
2017-11-09T23:12:07.863Z,101130.52
2017-11-09T23:14:36.375Z,101125.78
2017-11-09T23:17:11.900Z,101134.34
2017-11-09T23:19:40.540Z,101133.09
2017-11-09T23:22:09.252Z,101127.48
2017-11-09T23:24:37.886Z,101121.08
2017-11-09T23:27:09.928Z,101115.90
2017-11-09T23:29:39.387Z,101116.29
2017-11-09T23:32:08.137Z,101115.03
2017-11-09T23:34:36.787Z,101113.31
2017-11-09T23:37:09.432Z,101112.42
2017-11-09T23:39:38.085Z,101107.69
2017-11-09T23:42:06.802Z,101109.36
2017-11-09T23:44:35.508Z,101101.65
2017-11-09T23:47:08.348Z,101094.38
2017-11-09T23:49:37.043Z,101093.08
2017-11-09T23:52:05.727Z,101084.53
2017-11-09T23:54:34.403Z,101083.70
2017-11-09T23:57:07.122Z,101087.52
2017-11-09T23:59:35.819Z,101082.81
